Private Wetterstation Sandau
Wetterdaten: Freitag, 04.01.2013
Datum Zeit Temp. A. Feuchte A. Luftdruck Regen Wind Richtung Richtung Taupunkt Windchill
04.01.2013 00:01 7,3 C 85 % 1027,5 hPa 0,0 l/m 23,0 km/h (4 Bft) NW 315 4,9 C 3,7 C
04.01.2013 00:06 7,3 C 85 % 1027,6 hPa 0,0 l/m 8,6 km/h (2 Bft) W-NW 292 4,9 C 5,7 C
04.01.2013 00:11 7,2 C 85 % 1027,6 hPa 0,0 l/m 10,1 km/h (2 Bft) NW 315 4,9 C 5,3 C
04.01.2013 00:16 7,2 C 85 % 1027,7 hPa 0,0 l/m 13,0 km/h (3 Bft) W-NW 292 4,9 C 4,8 C
04.01.2013 00:21 7,2 C 85 % 1027,9 hPa 0,0 l/m 9,0 km/h (2 Bft) W-NW 292 4,9 C 5,5 C
04.01.2013 00:26 7,1 C 86 % 1027,7 hPa 0,0 l/m 18,0 km/h (3 Bft) SW 225 4,9 C 3,9 C
04.01.2013 00:31 7,1 C 86 % 1027,7 hPa 0,0 l/m 13,3 km/h (3 Bft) W-NW 292 4,9 C 4,6 C
04.01.2013 00:36 7,0 C 86 % 1027,8 hPa 0,0 l/m 14,4 km/h (3 Bft) W-NW 292 4,8 C 4,3 C
04.01.2013 00:41 7,0 C 86 % 1028,0 hPa 0,0 l/m 26,3 km/h (4 Bft) NW 315 4,8 C 3,0 C
04.01.2013 00:46 6,9 C 86 % 1027,8 hPa 0,0 l/m 15,5 km/h (3 Bft) NW 315 4,7 C 4,0 C
04.01.2013 00:51 6,9 C 86 % 1027,8 hPa 0,0 l/m 20,5 km/h (4 Bft) NW 315 4,7 C 3,4 C
04.01.2013 00:56 6,9 C 86 % 1027,7 hPa 0,0 l/m 13,7 km/h (3 Bft) W-NW 292 4,7 C 4,3 C
04.01.2013 01:01 6,9 C 86 % 1027,8 hPa 0,0 l/m 19,8 km/h (3 Bft) W-SW 247 4,7 C 3,5 C
04.01.2013 01:06 6,9 C 86 % 1027,9 hPa 0,0 l/m 7,9 km/h (2 Bft) W-SW 247 4,7 C 5,4 C
04.01.2013 01:11 6,9 C 86 % 1027,8 hPa 0,0 l/m 14,4 km/h (3 Bft) W-NW 292 4,7 C 4,2 C
04.01.2013 01:16 6,9 C 86 % 1027,8 hPa 0,0 l/m 7,6 km/h (2 Bft) W 270 4,7 C 5,5 C
04.01.2013 01:21 6,9 C 86 % 1027,9 hPa 0,0 l/m 18,0 km/h (3 Bft) N-NW 337 4,7 C 3,7 C
04.01.2013 01:26 6,9 C 86 % 1027,8 hPa 0,0 l/m 21,2 km/h (4 Bft) W-SW 247 4,7 C 3,3 C
04.01.2013 01:31 6,9 C 86 % 1027,9 hPa 0,0 l/m 16,2 km/h (3 Bft) NW 315 4,7 C 3,9 C
04.01.2013 01:36 6,8 C 86 % 1028,1 hPa 0,0 l/m 8,3 km/h (2 Bft) W-NW 292 4,6 C 5,2 C
04.01.2013 01:41 6,8 C 86 % 1028,0 hPa 0,0 l/m 18,7 km/h (3 Bft) W 270 4,6 C 3,5 C
04.01.2013 01:46 6,8 C 86 % 1028,0 hPa 0,0 l/m 9,4 km/h (2 Bft) NW 315 4,6 C 4,9 C
04.01.2013 01:51 6,8 C 86 % 1028,0 hPa 0,0 l/m 6,5 km/h (2 Bft) W 270 4,6 C 5,6 C
04.01.2013 01:56 6,8 C 86 % 1028,0 hPa 0,0 l/m 13,0 km/h (3 Bft) W-NW 292 4,6 C 4,3 C
04.01.2013 02:01 6,8 C 86 % 1028,1 hPa 0,0 l/m 14,4 km/h (3 Bft) W 270 4,6 C 4,1 C
04.01.2013 02:06 6,9 C 86 % 1028,4 hPa 0,0 l/m 16,9 km/h (3 Bft) W 270 4,7 C 3,8 C
04.01.2013 02:11 6,9 C 86 % 1028,5 hPa 0,0 l/m 14,4 km/h (3 Bft) N-NW 337 4,7 C 4,2 C
04.01.2013 02:16 6,8 C 86 % 1028,4 hPa 0,0 l/m 16,2 km/h (3 Bft) W-NW 292 4,6 C 3,8 C
04.01.2013 02:21 6,8 C 87 % 1028,3 hPa 0,0 l/m 16,9 km/h (3 Bft) W-NW 292 4,8 C 3,7 C
04.01.2013 02:26 6,6 C 87 % 1028,4 hPa 0,0 l/m 9,0 km/h (2 Bft) W-NW 292 4,6 C 4,8 C
04.01.2013 02:31 6,6 C 87 % 1028,4 hPa 0,0 l/m 7,9 km/h (2 Bft) W 270 4,6 C 5,0 C
04.01.2013 02:36 6,5 C 87 % 1028,3 hPa 0,0 l/m 6,5 km/h (2 Bft) W-NW 292 4,5 C 5,3 C
04.01.2013 02:41 6,6 C 87 % 1028,4 hPa 0,0 l/m 11,2 km/h (2 Bft) NW 315 4,6 C 4,3 C
04.01.2013 02:46 6,6 C 88 % 1028,5 hPa 0,0 l/m 8,6 km/h (2 Bft) W-NW 292 4,8 C 4,9 C
04.01.2013 02:51 6,6 C 88 % 1028,7 hPa 0,0 l/m 9,4 km/h (2 Bft) NW 315 4,8 C 4,7 C
04.01.2013 02:56 6,7 C 88 % 1028,8 hPa 0,0 l/m 9,7 km/h (2 Bft) N-NW 337 4,9 C 4,8 C
04.01.2013 03:01 6,8 C 88 % 1028,7 hPa 0,0 l/m 22,0 km/h (4 Bft) N-NW 337 5,0 C 3,1 C
04.01.2013 03:06 6,8 C 88 % 1028,7 hPa 0,0 l/m 11,2 km/h (2 Bft) W-SW 247 5,0 C 4,6 C
04.01.2013 03:11 6,9 C 88 % 1028,9 hPa 0,0 l/m 8,3 km/h (2 Bft) W 270 5,1 C 5,3 C
04.01.2013 03:16 6,9 C 88 % 1028,9 hPa 0,0 l/m 18,7 km/h (3 Bft) W 270 5,1 C 3,6 C
04.01.2013 03:21 6,9 C 88 % 1028,9 hPa 0,0 l/m 7,9 km/h (2 Bft) NW 315 5,1 C 5,4 C
04.01.2013 03:26 6,9 C 88 % 1028,9 hPa 0,0 l/m 18,4 km/h (3 Bft) W-NW 292 5,1 C 3,6 C
04.01.2013 03:31 6,9 C 88 % 1028,8 hPa 0,0 l/m 10,1 km/h (2 Bft) W 270 5,1 C 4,9 C
04.01.2013 03:36 6,9 C 88 % 1028,7 hPa 0,0 l/m 17,6 km/h (3 Bft) S-SW 202 5,1 C 3,7 C
04.01.2013 03:41 6,9 C 88 % 1028,7 hPa 0,0 l/m 10,4 km/h (2 Bft) W 270 5,1 C 4,8 C
04.01.2013 03:46 6,8 C 88 % 1028,7 hPa 0,0 l/m 16,2 km/h (3 Bft) W-NW 292 5,0 C 3,8 C
04.01.2013 03:51 6,7 C 88 % 1028,7 hPa 0,0 l/m 24,5 km/h (4 Bft) W 270 4,9 C 2,7 C
04.01.2013 03:56 6,6 C 88 % 1028,7 hPa 0,0 l/m 15,8 km/h (3 Bft) W 270 4,8 C 3,6 C
04.01.2013 04:01 6,6 C 88 % 1028,7 hPa 0,0 l/m 13,0 km/h (3 Bft) W-NW 292 4,8 C 4,0 C
04.01.2013 04:06 6,6 C 88 % 1028,6 hPa 0,0 l/m 13,3 km/h (3 Bft) W 270 4,8 C 4,0 C
04.01.2013 04:11 6,5 C 88 % 1028,5 hPa 0,0 l/m 4,0 km/h (1 Bft) W-SW 247 4,7 C 6,5 C
04.01.2013 04:16 6,4 C 88 % 1028,7 hPa 0,0 l/m 6,1 km/h (2 Bft) W 270 4,6 C 5,3 C
04.01.2013 04:21 6,4 C 88 % 1028,7 hPa 0,0 l/m 5,4 km/h (1 Bft) W 270 4,6 C 5,5 C
04.01.2013 04:26 6,3 C 88 % 1028,8 hPa 0,0 l/m 6,5 km/h (2 Bft) W-SW 247 4,5 C 5,1 C
04.01.2013 04:31 6,2 C 88 % 1028,7 hPa 0,0 l/m 14,8 km/h (3 Bft) W 270 4,4 C 3,3 C
04.01.2013 04:36 6,1 C 89 % 1028,7 hPa 0,0 l/m 4,0 km/h (1 Bft) W 270 4,4 C 6,1 C
04.01.2013 04:41 6,1 C 89 % 1028,6 hPa 0,0 l/m 3,2 km/h (1 Bft) W-SW 247 4,4 C 6,1 C
04.01.2013 04:46 5,9 C 89 % 1028,8 hPa 0,0 l/m 1,8 km/h (1 Bft) W-NW 292 4,2 C 5,9 C
04.01.2013 04:51 5,9 C 89 % 1028,8 hPa 0,0 l/m 4,7 km/h (1 Bft) SW 225 4,2 C 5,2 C
04.01.2013 04:56 5,9 C 89 % 1028,9 hPa 0,0 l/m 5,0 km/h (1 Bft) W 270 4,2 C 5,1 C
04.01.2013 05:01 5,9 C 89 % 1028,7 hPa 0,0 l/m 15,5 km/h (3 Bft) NW 315 4,2 C 2,8 C
04.01.2013 05:06 5,8 C 89 % 1028,7 hPa 0,0 l/m 8,3 km/h (2 Bft) W 270 4,1 C 4,0 C
04.01.2013 05:11 5,8 C 89 % 1028,7 hPa 0,0 l/m 11,9 km/h (2 Bft) W-SW 247 4,1 C 3,2 C
04.01.2013 05:16 5,8 C 89 % 1028,3 hPa 0,0 l/m 4,0 km/h (1 Bft) N-NW 337 4,1 C 5,8 C
04.01.2013 05:21 5,8 C 90 % 1028,3 hPa 0,0 l/m 11,5 km/h (2 Bft) W-NW 292 4,3 C 3,3 C
04.01.2013 05:26 5,8 C 90 % 1028,4 hPa 0,0 l/m 2,9 km/h (1 Bft) W 270 4,3 C 5,8 C
04.01.2013 05:31 5,9 C 90 % 1028,3 hPa 0,0 l/m 7,6 km/h (2 Bft) W-SW 247 4,4 C 4,3 C
04.01.2013 05:36 5,9 C 90 % 1028,0 hPa 0,0 l/m 4,3 km/h (1 Bft) SW 225 4,4 C 5,9 C
04.01.2013 05:41 5,9 C 90 % 1028,0 hPa 0,0 l/m 14,4 km/h (3 Bft) W 270 4,4 C 2,9 C
04.01.2013 05:46 5,8 C 90 % 1028,0 hPa 0,0 l/m 13,3 km/h (3 Bft) W-SW 247 4,3 C 3,0 C
04.01.2013 05:51 5,8 C 90 % 1028,2 hPa 0,0 l/m 8,3 km/h (2 Bft) W-SW 247 4,3 C 4,0 C
04.01.2013 05:56 5,8 C 89 % 1028,2 hPa 0,0 l/m 4,3 km/h (1 Bft) W 270 4,1 C 5,8 C
04.01.2013 06:01 5,8 C 89 % 1028,3 hPa 0,0 l/m 9,7 km/h (2 Bft) W 270 4,1 C 3,7 C
04.01.2013 06:06 5,8 C 89 % 1028,4 hPa 0,0 l/m 4,7 km/h (1 Bft) W-SW 247 4,1 C 5,1 C
04.01.2013 06:11 5,7 C 89 % 1028,5 hPa 0,0 l/m 6,5 km/h (2 Bft) W-SW 247 4,0 C 4,4 C
04.01.2013 06:16 5,6 C 90 % 1028,4 hPa 0,0 l/m 8,3 km/h (2 Bft) W-SW 247 4,1 C 3,8 C
04.01.2013 06:21 5,6 C 90 % 1028,2 hPa 0,0 l/m 7,6 km/h (2 Bft) NW 315 4,1 C 3,9 C
04.01.2013 06:26 5,6 C 90 % 1028,3 hPa 0,0 l/m 6,1 km/h (2 Bft) W-SW 247 4,1 C 4,4 C
04.01.2013 06:31 5,6 C 90 % 1028,5 hPa 0,0 l/m 15,1 km/h (3 Bft) W 270 4,1 C 2,5 C
04.01.2013 06:36 5,6 C 90 % 1028,4 hPa 0,0 l/m 23,0 km/h (4 Bft) W 270 4,1 C 1,5 C
04.01.2013 06:41 5,6 C 90 % 1028,4 hPa 0,0 l/m 6,8 km/h (2 Bft) W-NW 292 4,1 C 4,2 C
04.01.2013 06:46 5,7 C 90 % 1028,5 hPa 0,0 l/m 7,2 km/h (2 Bft) W 270 4,2 C 4,2 C
04.01.2013 06:51 5,7 C 90 % 1028,4 hPa 0,0 l/m 7,9 km/h (2 Bft) W 270 4,2 C 4,0 C
04.01.2013 06:56 5,8 C 90 % 1028,0 hPa 0,0 l/m 11,9 km/h (2 Bft) W 270 4,3 C 3,2 C
04.01.2013 07:01 5,8 C 90 % 1028,3 hPa 0,0 l/m 6,5 km/h (2 Bft) W 270 4,3 C 4,5 C
04.01.2013 07:06 5,9 C 91 % 1028,3 hPa 0,0 l/m 16,9 km/h (3 Bft) W-NW 292 4,5 C 2,6 C
04.01.2013 07:11 5,9 C 91 % 1028,5 hPa 0,0 l/m 9,7 km/h (2 Bft) W-NW 292 4,5 C 3,8 C
04.01.2013 07:16 6,1 C 91 % 1028,7 hPa 0,0 l/m 10,4 km/h (2 Bft) W-SW 247 4,7 C 3,9 C
04.01.2013 07:21 6,2 C 90 % 1028,7 hPa 0,0 l/m 16,2 km/h (3 Bft) NW 315 4,7 C 3,1 C
04.01.2013 07:26 6,4 C 90 % 1028,9 hPa 0,0 l/m 14,4 km/h (3 Bft) W 270 4,9 C 3,6 C
04.01.2013 07:31 6,4 C 90 % 1028,9 hPa 0,0 l/m 7,2 km/h (2 Bft) W-NW 292 4,9 C 5,0 C
04.01.2013 07:36 6,5 C 90 % 1029,0 hPa 0,0 l/m 5,0 km/h (1 Bft) W-NW 292 5,0 C 5,8 C
04.01.2013 07:41 6,6 C 90 % 1028,7 hPa 0,0 l/m 4,7 km/h (1 Bft) W-NW 292 5,1 C 6,0 C
04.01.2013 07:46 6,6 C 90 % 1028,7 hPa 0,0 l/m 13,7 km/h (3 Bft) W 270 5,1 C 3,9 C
04.01.2013 07:51 6,8 C 90 % 1028,8 hPa 0,0 l/m 13,7 km/h (3 Bft) NW 315 5,3 C 4,2 C
04.01.2013 07:56 6,8 C 90 % 1028,7 hPa 0,0 l/m 9,4 km/h (2 Bft) NW 315 5,3 C 4,9 C
04.01.2013 08:01 6,9 C 90 % 1028,9 hPa 0,0 l/m 9,7 km/h (2 Bft) NW 315 5,4 C 5,0 C
04.01.2013 08:06 6,9 C 90 % 1028,8 hPa 0,0 l/m 11,5 km/h (2 Bft) NW 315 5,4 C 4,6 C
04.01.2013 08:11 6,9 C 90 % 1029,1 hPa 0,0 l/m 7,6 km/h (2 Bft) W-NW 292 5,4 C 5,5 C
04.01.2013 08:16 6,9 C 90 % 1029,0 hPa 0,0 l/m 6,1 km/h (2 Bft) W-NW 292 5,4 C 5,9 C
04.01.2013 08:21 7,0 C 90 % 1029,1 hPa 0,0 l/m 3,6 km/h (1 Bft) W 270 5,5 C 7,0 C
04.01.2013 08:26 7,1 C 89 % 1029,0 hPa 0,0 l/m 15,5 km/h (3 Bft) W-NW 292 5,4 C 4,3 C
04.01.2013 08:31 7,2 C 89 % 1028,9 hPa 0,0 l/m 10,1 km/h (2 Bft) W-NW 292 5,5 C 5,3 C
04.01.2013 08:36 7,2 C 89 % 1028,9 hPa 0,0 l/m 6,1 km/h (2 Bft) W-SW 247 5,5 C 6,2 C
04.01.2013 08:41 7,2 C 89 % 1028,7 hPa 0,0 l/m 9,7 km/h (2 Bft) W-NW 292 5,5 C 5,3 C
04.01.2013 08:46 7,2 C 89 % 1028,7 hPa 0,0 l/m 18,4 km/h (3 Bft) W-NW 292 5,5 C 4,0 C
04.01.2013 08:51 7,3 C 89 % 1028,7 hPa 0,0 l/m 6,1 km/h (2 Bft) W-NW 292 5,6 C 6,3 C
04.01.2013 08:56 7,3 C 89 % 1028,6 hPa 0,0 l/m 8,3 km/h (2 Bft) W 270 5,6 C 5,8 C
04.01.2013 09:01 7,4 C 89 % 1028,5 hPa 0,0 l/m 7,2 km/h (2 Bft) W 270 5,7 C 6,1 C
04.01.2013 09:06 7,4 C 89 % 1028,6 hPa 0,0 l/m 3,6 km/h (1 Bft) W 270 5,7 C 7,4 C
04.01.2013 09:11 7,4 C 89 % 1028,5 hPa 0,0 l/m 7,6 km/h (2 Bft) W-NW 292 5,7 C 6,0 C
04.01.2013 09:16 7,5 C 89 % 1028,3 hPa 0,0 l/m 5,8 km/h (2 Bft) W 270 5,8 C 6,7 C
04.01.2013 09:21 7,6 C 89 % 1028,3 hPa 0,0 l/m 4,3 km/h (1 Bft) W-NW 292 5,9 C 7,6 C
04.01.2013 09:26 7,6 C 89 % 1028,3 hPa 0,0 l/m 10,1 km/h (2 Bft) W 270 5,9 C 5,7 C
04.01.2013 09:31 7,7 C 89 % 1028,4 hPa 0,0 l/m 4,0 km/h (1 Bft) W 270 6,0 C 7,7 C
04.01.2013 09:36 7,8 C 89 % 1028,3 hPa 0,0 l/m 7,6 km/h (2 Bft) W-NW 292 6,1 C 6,5 C
04.01.2013 09:41 7,8 C 89 % 1028,4 hPa 0,0 l/m 3,2 km/h (1 Bft) W 270 6,1 C 7,8 C
04.01.2013 09:46 7,8 C 89 % 1028,3 hPa 0,0 l/m 11,2 km/h (2 Bft) W-NW 292 6,1 C 5,8 C
04.01.2013 09:51 7,9 C 89 % 1028,5 hPa 0,0 l/m 14,4 km/h (3 Bft) W-NW 292 6,2 C 5,4 C
04.01.2013 09:56 7,9 C 88 % 1028,5 hPa 0,0 l/m 5,8 km/h (2 Bft) W-NW 292 6,0 C 7,1 C
04.01.2013 10:01 7,9 C 88 % 1028,6 hPa 0,0 l/m 11,2 km/h (2 Bft) W-SW 247 6,0 C 5,9 C
04.01.2013 10:06 7,9 C 88 % 1028,6 hPa 0,0 l/m 0,0 km/h (0 Bft) W-NW 292 6,0 C 7,9 C
04.01.2013 10:11 7,9 C 88 % 1028,4 hPa 0,0 l/m 2,9 km/h (1 Bft) W-NW 292 6,0 C 7,9 C
04.01.2013 10:16 8,0 C 88 % 1028,6 hPa 0,0 l/m 8,6 km/h (2 Bft) W-SW 247 6,1 C 6,5 C
04.01.2013 10:21 8,1 C 88 % 1028,7 hPa 0,0 l/m 7,9 km/h (2 Bft) W 270 6,2 C 6,8 C
04.01.2013 10:26 8,1 C 88 % 1028,7 hPa 0,0 l/m 6,5 km/h (2 Bft) W-NW 292 6,2 C 7,1 C
04.01.2013 10:31 8,1 C 88 % 1028,7 hPa 0,0 l/m 2,9 km/h (1 Bft) W 270 6,2 C 8,1 C
04.01.2013 10:36 8,1 C 89 % 1028,6 hPa 0,0 l/m 11,9 km/h (2 Bft) W-NW 292 6,4 C 6,0 C
04.01.2013 10:41 8,3 C 89 % 1028,4 hPa 0,0 l/m 5,0 km/h (1 Bft) W 270 6,6 C 7,8 C
04.01.2013 10:46 8,4 C 89 % 1028,6 hPa 0,0 l/m 7,2 km/h (2 Bft) W 270 6,7 C 7,3 C
04.01.2013 10:51 8,4 C 88 % 1028,6 hPa 0,0 l/m 3,2 km/h (1 Bft) W-NW 292 6,5 C 8,4 C
04.01.2013 10:56 8,4 C 88 % 1028,5 hPa 0,0 l/m 5,8 km/h (2 Bft) W-NW 292 6,5 C 7,7 C
04.01.2013 11:01 8,4 C 88 % 1028,6 hPa 0,0 l/m 6,1 km/h (2 Bft) W-NW 292 6,5 C 7,6 C
04.01.2013 11:06 8,4 C 89 % 1028,6 hPa 0,0 l/m 2,5 km/h (1 Bft) W 270 6,7 C 8,4 C
04.01.2013 11:11 8,4 C 89 % 1028,5 hPa 0,0 l/m 3,6 km/h (1 Bft) W-NW 292 6,7 C 8,4 C
04.01.2013 11:16 8,4 C 89 % 1028,2 hPa 0,0 l/m 0,0 km/h (0 Bft) W-NW 292 6,7 C 8,4 C
04.01.2013 11:21 8,5 C 89 % 1028,3 hPa 0,0 l/m 7,2 km/h (2 Bft) W-NW 292 6,8 C 7,4 C
04.01.2013 11:26 8,5 C 89 % 1028,1 hPa 0,0 l/m 5,8 km/h (2 Bft) W 270 6,8 C 7,8 C
04.01.2013 11:31 8,5 C 88 % 1028,0 hPa 0,0 l/m 5,0 km/h (1 Bft) W-SW 247 6,6 C 8,1 C
04.01.2013 11:36 8,6 C 88 % 1027,9 hPa 0,0 l/m 7,2 km/h (2 Bft) SW 225 6,7 C 7,5 C
04.01.2013 11:41 8,6 C 88 % 1027,7 hPa 0,0 l/m 3,2 km/h (1 Bft) W-SW 247 6,7 C 8,6 C
04.01.2013 11:46 8,6 C 89 % 1027,6 hPa 0,0 l/m 4,3 km/h (1 Bft) W 270 6,9 C 8,6 C
04.01.2013 11:51 8,5 C 89 % 1027,5 hPa 0,0 l/m 7,6 km/h (2 Bft) W-SW 247 6,8 C 7,3 C
04.01.2013 11:56 8,5 C 89 % 1027,3 hPa 0,0 l/m 9,7 km/h (2 Bft) W 270 6,8 C 6,9 C
04.01.2013 12:01 8,5 C 89 % 1027,2 hPa 0,5 l/m 4,7 km/h (1 Bft) W-SW 247 6,8 C 8,2 C
04.01.2013 12:06 8,5 C 89 % 1027,2 hPa 0,0 l/m 16,9 km/h (3 Bft) W 270 6,8 C 5,8 C
04.01.2013 12:11 8,5 C 90 % 1027,1 hPa 0,0 l/m 9,0 km/h (2 Bft) W 270 7,0 C 7,0 C
04.01.2013 12:16 8,5 C 90 % 1026,8 hPa 0,0 l/m 13,0 km/h (3 Bft) W 270 7,0 C 6,3 C
04.01.2013 12:21 8,5 C 90 % 1026,7 hPa 0,5 l/m 18,0 km/h (3 Bft) W-SW 247 7,0 C 5,7 C
04.01.2013 12:26 8,5 C 91 % 1026,7 hPa 0,0 l/m 3,6 km/h (1 Bft) W 270 7,1 C 8,5 C
04.01.2013 12:31 8,5 C 91 % 1026,4 hPa 0,5 l/m 11,2 km/h (2 Bft) W-SW 247 7,1 C 6,6 C
04.01.2013 12:36 8,5 C 91 % 1026,2 hPa 0,0 l/m 16,9 km/h (3 Bft) W 270 7,1 C 5,8 C
04.01.2013 12:41 8,5 C 91 % 1026,2 hPa 0,5 l/m 14,8 km/h (3 Bft) W 270 7,1 C 6,1 C
04.01.2013 12:46 8,5 C 92 % 1026,0 hPa 0,0 l/m 10,1 km/h (2 Bft) W-NW 292 7,3 C 6,8 C
04.01.2013 12:51 8,5 C 92 % 1026,1 hPa 0,0 l/m 10,4 km/h (2 Bft) S-SW 202 7,3 C 6,8 C
04.01.2013 12:56 8,5 C 92 % 1025,9 hPa 0,0 l/m 13,7 km/h (3 Bft) SW 225 7,3 C 6,2 C
04.01.2013 13:01 8,6 C 92 % 1025,8 hPa 0,0 l/m 13,3 km/h (3 Bft) W 270 7,4 C 6,4 C
04.01.2013 13:06 8,6 C 92 % 1025,8 hPa 0,5 l/m 13,7 km/h (3 Bft) W 270 7,4 C 6,4 C
04.01.2013 13:11 8,7 C 93 % 1025,5 hPa 0,0 l/m 13,7 km/h (3 Bft) W-SW 247 7,6 C 6,5 C
04.01.2013 13:16 8,8 C 93 % 1025,5 hPa 0,0 l/m 16,2 km/h (3 Bft) W-SW 247 7,7 C 6,3 C
04.01.2013 13:21 8,8 C 93 % 1025,5 hPa 0,0 l/m 7,6 km/h (2 Bft) W-SW 247 7,7 C 7,7 C
04.01.2013 13:26 8,9 C 93 % 1025,5 hPa 0,0 l/m 14,8 km/h (3 Bft) W 270 7,8 C 6,6 C
04.01.2013 13:31 8,9 C 93 % 1025,3 hPa 0,0 l/m 6,5 km/h (2 Bft) W 270 7,8 C 8,1 C
04.01.2013 13:36 8,9 C 93 % 1025,2 hPa 0,0 l/m 14,8 km/h (3 Bft) W 270 7,8 C 6,6 C
04.01.2013 13:41 9,0 C 94 % 1025,1 hPa 0,0 l/m 25,2 km/h (4 Bft) W 270 8,1 C 5,6 C
04.01.2013 13:46 9,1 C 94 % 1025,1 hPa 0,0 l/m 19,4 km/h (3 Bft) W-SW 247 8,2 C 6,3 C
04.01.2013 13:51 9,1 C 94 % 1025,0 hPa 0,0 l/m 12,2 km/h (2 Bft) W-SW 247 8,2 C 7,2 C
04.01.2013 13:56 9,2 C 94 % 1024,8 hPa 0,0 l/m 18,7 km/h (3 Bft) W 270 8,3 C 6,5 C
04.01.2013 14:01 9,2 C 93 % 1024,9 hPa 0,0 l/m 13,7 km/h (3 Bft) W-NW 292 8,1 C 7,1 C
04.01.2013 14:06 9,3 C 93 % 1024,8 hPa 0,0 l/m 17,6 km/h (3 Bft) W-NW 292 8,2 C 6,7 C
04.01.2013 14:11 9,3 C 93 % 1024,7 hPa 0,0 l/m 9,7 km/h (2 Bft) NW 315 8,2 C 7,8 C
04.01.2013 14:16 9,3 C 93 % 1024,7 hPa 0,0 l/m 18,4 km/h (3 Bft) NW 315 8,2 C 6,7 C
04.01.2013 14:21 9,4 C 93 % 1024,8 hPa 0,0 l/m 7,6 km/h (2 Bft) NW 315 8,3 C 8,4 C
04.01.2013 14:26 9,5 C 93 % 1024,8 hPa 0,0 l/m 33,1 km/h (5 Bft) NW 315 8,4 C 5,7 C
04.01.2013 14:31 9,5 C 93 % 1024,8 hPa 0,0 l/m 26,3 km/h (4 Bft) W-NW 292 8,4 C 6,2 C
04.01.2013 14:36 9,5 C 93 % 1024,6 hPa 0,0 l/m 16,6 km/h (3 Bft) NW 315 8,4 C 7,1 C
04.01.2013 14:41 9,6 C 93 % 1024,5 hPa 0,0 l/m 19,1 km/h (3 Bft) NW 315 8,5 C 7,0 C
04.01.2013 14:46 9,6 C 92 % 1024,7 hPa 0,0 l/m 14,0 km/h (3 Bft) W-NW 292 8,4 C 7,5 C
04.01.2013 14:51 9,6 C 92 % 1024,6 hPa 0,0 l/m 17,6 km/h (3 Bft) W-NW 292 8,4 C 7,1 C
04.01.2013 14:56 9,6 C 92 % 1024,6 hPa 0,0 l/m 13,7 km/h (3 Bft) W-NW 292 8,4 C 7,6 C
04.01.2013 15:01 9,6 C 92 % 1024,8 hPa 0,0 l/m 21,6 km/h (4 Bft) N-NW 337 8,4 C 6,7 C
04.01.2013 15:06 9,7 C 92 % 1024,6 hPa 0,0 l/m 23,0 km/h (4 Bft) NW 315 8,5 C 6,7 C
04.01.2013 15:11 9,6 C 92 % 1024,6 hPa 0,0 l/m 21,2 km/h (4 Bft) W 270 8,4 C 6,8 C
04.01.2013 15:16 9,8 C 91 % 1024,5 hPa 0,0 l/m 15,5 km/h (3 Bft) W 270 8,4 C 7,6 C
04.01.2013 15:21 9,7 C 91 % 1024,5 hPa 0,0 l/m 16,2 km/h (3 Bft) W-NW 292 8,3 C 7,4 C
04.01.2013 15:26 9,6 C 91 % 1024,5 hPa 0,0 l/m 23,0 km/h (4 Bft) NW 315 8,2 C 6,6 C
04.01.2013 15:31 9,6 C 91 % 1024,5 hPa 0,0 l/m 24,5 km/h (4 Bft) NW 315 8,2 C 6,5 C
04.01.2013 15:36 9,6 C 91 % 1024,4 hPa 0,0 l/m 13,7 km/h (3 Bft) W 270 8,2 C 7,6 C
04.01.2013 15:41 9,6 C 91 % 1024,4 hPa 0,5 l/m 16,6 km/h (3 Bft) W-SW 247 8,2 C 7,2 C
04.01.2013 15:46 9,6 C 91 % 1024,4 hPa 0,0 l/m 15,5 km/h (3 Bft) NW 315 8,2 C 7,4 C
04.01.2013 15:51 9,6 C 91 % 1024,3 hPa 0,0 l/m 17,3 km/h (3 Bft) NW 315 8,2 C 7,2 C
04.01.2013 15:56 9,5 C 91 % 1024,3 hPa 0,0 l/m 19,1 km/h (3 Bft) NW 315 8,1 C 6,8 C
04.01.2013 16:01 9,5 C 91 % 1024,3 hPa 0,0 l/m 19,8 km/h (3 Bft) W-NW 292 8,1 C 6,8 C
04.01.2013 16:06 9,5 C 91 % 1024,4 hPa 0,0 l/m 28,8 km/h (4 Bft) W-NW 292 8,1 C 6,0 C
04.01.2013 16:11 9,5 C 91 % 1024,4 hPa 0,0 l/m 16,6 km/h (3 Bft) W-NW 292 8,1 C 7,1 C
04.01.2013 16:16 9,5 C 91 % 1024,4 hPa 0,0 l/m 14,8 km/h (3 Bft) W 270 8,1 C 7,3 C
04.01.2013 16:21 9,5 C 91 % 1024,2 hPa 0,0 l/m 21,2 km/h (4 Bft) NW 315 8,1 C 6,6 C
04.01.2013 16:26 9,5 C 91 % 1024,3 hPa 0,0 l/m 24,8 km/h (4 Bft) N-NW 337 8,1 C 6,3 C
04.01.2013 16:31 9,5 C 91 % 1024,3 hPa 0,0 l/m 9,0 km/h (2 Bft) W 270 8,1 C 8,2 C
04.01.2013 16:36 9,5 C 91 % 1024,3 hPa 0,0 l/m 23,4 km/h (4 Bft) NW 315 8,1 C 6,4 C
04.01.2013 16:41 9,5 C 91 % 1024,1 hPa 0,0 l/m 24,5 km/h (4 Bft) N-NW 337 8,1 C 6,3 C
04.01.2013 16:46 9,5 C 91 % 1024,0 hPa 0,0 l/m 20,5 km/h (4 Bft) W 270 8,1 C 6,7 C
04.01.2013 16:51 9,5 C 91 % 1024,0 hPa 0,0 l/m 13,7 km/h (3 Bft) W 270 8,1 C 7,5 C
04.01.2013 16:56 9,4 C 91 % 1024,2 hPa 0,0 l/m 22,0 km/h (4 Bft) W-NW 292 8,0 C 6,4 C
04.01.2013 17:01 9,5 C 91 % 1024,0 hPa 0,0 l/m 21,2 km/h (4 Bft) W-NW 292 8,1 C 6,6 C
04.01.2013 17:06 9,5 C 91 % 1023,7 hPa 0,0 l/m 22,7 km/h (4 Bft) W-NW 292 8,1 C 6,5 C
04.01.2013 17:11 9,5 C 91 % 1023,9 hPa 0,0 l/m 14,4 km/h (3 Bft) W-NW 292 8,1 C 7,4 C
04.01.2013 17:16 9,4 C 91 % 1023,7 hPa 0,0 l/m 14,4 km/h (3 Bft) W 270 8,0 C 7,3 C
04.01.2013 17:21 9,4 C 91 % 1023,8 hPa 0,0 l/m 16,9 km/h (3 Bft) W 270 8,0 C 6,9 C
04.01.2013 17:26 9,5 C 91 % 1024,0 hPa 0,0 l/m 11,9 km/h (2 Bft) W 270 8,1 C 7,7 C
04.01.2013 17:31 9,4 C 91 % 1023,9 hPa 0,0 l/m 32,4 km/h (5 Bft) NW 315 8,0 C 5,6 C
04.01.2013 17:36 9,5 C 91 % 1023,8 hPa 0,0 l/m 18,7 km/h (3 Bft) W-NW 292 8,1 C 6,9 C
04.01.2013 17:41 9,5 C 91 % 1023,9 hPa 0,0 l/m 16,9 km/h (3 Bft) NW 315 8,1 C 7,1 C
04.01.2013 17:46 9,4 C 91 % 1024,1 hPa 0,0 l/m 16,2 km/h (3 Bft) NW 315 8,0 C 7,0 C
04.01.2013 17:51 9,4 C 91 % 1023,9 hPa 0,0 l/m 17,6 km/h (3 Bft) W-NW 292 8,0 C 6,9 C
04.01.2013 17:56 9,5 C 91 % 1024,0 hPa 0,0 l/m 19,4 km/h (3 Bft) NW 315 8,1 C 6,8 C
04.01.2013 18:01 9,5 C 90 % 1024,0 hPa 0,5 l/m 20,9 km/h (4 Bft) NW 315 7,9 C 6,7 C
04.01.2013 18:06 9,5 C 90 % 1024,0 hPa 0,0 l/m 16,9 km/h (3 Bft) W-NW 292 7,9 C 7,1 C
04.01.2013 18:11 9,5 C 90 % 1023,9 hPa 0,0 l/m 22,0 km/h (4 Bft) W-NW 292 7,9 C 6,6 C
04.01.2013 18:16 9,5 C 90 % 1023,9 hPa 0,0 l/m 16,9 km/h (3 Bft) W-NW 292 7,9 C 7,1 C
04.01.2013 18:21 9,4 C 90 % 1023,8 hPa 0,0 l/m 16,2 km/h (3 Bft) W-NW 292 7,8 C 7,0 C
04.01.2013 18:26 9,4 C 90 % 1023,8 hPa 0,0 l/m 19,1 km/h (3 Bft) W 270 7,8 C 6,7 C
04.01.2013 18:31 9,4 C 91 % 1023,6 hPa 0,0 l/m 18,7 km/h (3 Bft) W-NW 292 8,0 C 6,8 C
04.01.2013 18:36 9,4 C 91 % 1023,7 hPa 0,0 l/m 21,6 km/h (4 Bft) NW 315 8,0 C 6,5 C
04.01.2013 18:41 9,4 C 91 % 1023,6 hPa 0,0 l/m 15,5 km/h (3 Bft) W-NW 292 8,0 C 7,1 C
04.01.2013 18:46 9,3 C 91 % 1023,6 hPa 0,0 l/m 19,8 km/h (3 Bft) NW 315 7,9 C 6,5 C
04.01.2013 18:51 9,3 C 91 % 1023,8 hPa 0,5 l/m 13,3 km/h (3 Bft) NW 315 7,9 C 7,3 C
04.01.2013 18:56 9,3 C 91 % 1023,6 hPa 0,0 l/m 13,7 km/h (3 Bft) NW 315 7,9 C 7,2 C
04.01.2013 19:01 9,3 C 91 % 1023,9 hPa 0,0 l/m 20,9 km/h (4 Bft) W-NW 292 7,9 C 6,4 C
04.01.2013 19:06 9,3 C 91 % 1024,0 hPa 0,0 l/m 27,7 km/h (4 Bft) NW 315 7,9 C 5,8 C
04.01.2013 19:11 9,3 C 91 % 1023,7 hPa 0,0 l/m 14,8 km/h (3 Bft) NW 315 7,9 C 7,1 C
04.01.2013 19:16 9,3 C 91 % 1023,8 hPa 0,0 l/m 10,1 km/h (2 Bft) W-NW 292 7,9 C 7,8 C
04.01.2013 19:21 9,3 C 91 % 1023,9 hPa 0,0 l/m 13,7 km/h (3 Bft) NW 315 7,9 C 7,2 C
04.01.2013 19:26 9,3 C 91 % 1024,0 hPa 0,0 l/m 27,0 km/h (4 Bft) W-NW 292 7,9 C 5,9 C
04.01.2013 19:31 9,2 C 91 % 1024,2 hPa 0,0 l/m 4,7 km/h (1 Bft) NW 315 7,8 C 8,9 C
04.01.2013 19:36 9,2 C 91 % 1024,4 hPa 0,0 l/m 6,5 km/h (2 Bft) N-NW 337 7,8 C 8,4 C
04.01.2013 19:41 9,2 C 91 % 1024,4 hPa 0,5 l/m 16,2 km/h (3 Bft) NW 315 7,8 C 6,8 C
04.01.2013 19:46 9,2 C 92 % 1024,5 hPa 0,0 l/m 13,3 km/h (3 Bft) NW 315 8,0 C 7,2 C
04.01.2013 19:51 9,1 C 92 % 1024,3 hPa 0,5 l/m 7,6 km/h (2 Bft) NW 315 7,9 C 8,0 C
04.01.2013 19:56 9,1 C 92 % 1024,5 hPa 0,0 l/m 22,3 km/h (4 Bft) N-NW 337 7,9 C 6,0 C
04.01.2013 20:01 9,0 C 92 % 1024,4 hPa 0,5 l/m 18,7 km/h (3 Bft) NW 315 7,8 C 6,2 C
04.01.2013 20:06 9,0 C 92 % 1024,3 hPa 0,5 l/m 16,2 km/h (3 Bft) W-NW 292 7,8 C 6,5 C
04.01.2013 20:11 8,9 C 92 % 1024,1 hPa 0,0 l/m 6,5 km/h (2 Bft) W 270 7,7 C 8,1 C
04.01.2013 20:16 8,9 C 92 % 1024,2 hPa 0,5 l/m 20,5 km/h (4 Bft) NW 315 7,7 C 5,9 C
04.01.2013 20:21 8,9 C 93 % 1024,3 hPa 0,0 l/m 10,8 km/h (2 Bft) W-NW 292 7,8 C 7,2 C
04.01.2013 20:26 8,9 C 93 % 1024,2 hPa 0,5 l/m 9,0 km/h (2 Bft) W 270 7,8 C 7,5 C
04.01.2013 20:31 8,9 C 93 % 1024,0 hPa 0,0 l/m 16,6 km/h (3 Bft) W-SW 247 7,8 C 6,4 C
04.01.2013 20:36 8,9 C 93 % 1024,0 hPa 0,0 l/m 7,9 km/h (2 Bft) W-NW 292 7,8 C 7,7 C
04.01.2013 20:41 8,9 C 93 % 1024,1 hPa 0,0 l/m 25,2 km/h (4 Bft) NW 315 7,8 C 5,5 C
04.01.2013 20:46 8,9 C 93 % 1024,3 hPa 0,5 l/m 7,2 km/h (2 Bft) W-NW 292 7,8 C 7,9 C
04.01.2013 20:51 8,9 C 93 % 1024,1 hPa 0,0 l/m 21,6 km/h (4 Bft) NW 315 7,8 C 5,8 C
04.01.2013 20:56 8,9 C 93 % 1024,2 hPa 0,0 l/m 11,9 km/h (2 Bft) W-NW 292 7,8 C 7,0 C
04.01.2013 21:01 8,9 C 93 % 1024,0 hPa 0,0 l/m 8,3 km/h (2 Bft) W 270 7,8 C 7,7 C
04.01.2013 21:06 8,9 C 93 % 1024,0 hPa 0,5 l/m 10,1 km/h (2 Bft) W-NW 292 7,8 C 7,3 C
04.01.2013 21:11 8,9 C 93 % 1024,0 hPa 0,0 l/m 16,9 km/h (3 Bft) W-NW 292 7,8 C 6,3 C
04.01.2013 21:16 8,9 C 93 % 1024,0 hPa 0,0 l/m 4,7 km/h (1 Bft) W-NW 292 7,8 C 8,6 C
04.01.2013 21:21 8,8 C 93 % 1024,2 hPa 0,5 l/m 12,6 km/h (3 Bft) W-NW 292 7,7 C 6,8 C
04.01.2013 21:26 8,8 C 93 % 1024,0 hPa 0,0 l/m 14,8 km/h (3 Bft) NW 315 7,7 C 6,5 C
04.01.2013 21:31 8,8 C 94 % 1024,1 hPa 0,0 l/m 12,2 km/h (2 Bft) W-NW 292 7,9 C 6,8 C
04.01.2013 21:36 8,8 C 94 % 1024,0 hPa 0,0 l/m 12,6 km/h (3 Bft) W-NW 292 7,9 C 6,8 C
04.01.2013 21:41 8,8 C 94 % 1024,2 hPa 0,0 l/m 19,1 km/h (3 Bft) NW 315 7,9 C 6,0 C
04.01.2013 21:46 8,8 C 94 % 1024,3 hPa 0,5 l/m 16,9 km/h (3 Bft) W-NW 292 7,9 C 6,2 C
04.01.2013 21:51 8,8 C 94 % 1024,3 hPa 0,0 l/m 17,3 km/h (3 Bft) NW 315 7,9 C 6,2 C
04.01.2013 21:56 8,8 C 94 % 1024,2 hPa 0,5 l/m 13,3 km/h (3 Bft) NW 315 7,9 C 6,7 C
04.01.2013 22:01 8,8 C 94 % 1024,2 hPa 0,0 l/m 18,0 km/h (3 Bft) NW 315 7,9 C 6,1 C
04.01.2013 22:06 8,8 C 94 % 1024,1 hPa 0,0 l/m 8,6 km/h (2 Bft) N 360 7,9 C 7,5 C
04.01.2013 22:11 8,8 C 94 % 1024,3 hPa 0,0 l/m 8,6 km/h (2 Bft) NW 315 7,9 C 7,5 C
04.01.2013 22:16 8,8 C 94 % 1024,2 hPa 0,0 l/m 16,6 km/h (3 Bft) N-NW 337 7,9 C 6,2 C
04.01.2013 22:21 8,8 C 94 % 1024,2 hPa 0,0 l/m 13,7 km/h (3 Bft) W-NW 292 7,9 C 6,6 C
04.01.2013 22:26 8,8 C 94 % 1024,3 hPa 0,5 l/m 14,4 km/h (3 Bft) NW 315 7,9 C 6,5 C
04.01.2013 22:31 8,8 C 94 % 1024,1 hPa 0,0 l/m 4,0 km/h (1 Bft) N-NW 337 7,9 C 8,8 C
04.01.2013 22:36 8,8 C 93 % 1024,1 hPa 0,0 l/m 7,6 km/h (2 Bft) NW 315 7,7 C 7,7 C
04.01.2013 22:41 8,8 C 94 % 1024,2 hPa 0,0 l/m 13,7 km/h (3 Bft) NW 315 7,9 C 6,6 C
04.01.2013 22:46 8,8 C 93 % 1024,4 hPa 0,0 l/m 7,2 km/h (2 Bft) NW 315 7,7 C 7,8 C
04.01.2013 22:51 8,7 C 93 % 1024,4 hPa 0,0 l/m 5,8 km/h (2 Bft) N-NO 22 7,6 C 8,0 C
04.01.2013 22:56 8,7 C 93 % 1024,4 hPa 0,0 l/m 11,9 km/h (2 Bft) N-NW 337 7,6 C 6,8 C
04.01.2013 23:01 8,7 C 93 % 1024,5 hPa 0,0 l/m 18,0 km/h (3 Bft) NW 315 7,6 C 5,9 C
04.01.2013 23:06 8,6 C 93 % 1024,4 hPa 0,0 l/m 17,3 km/h (3 Bft) NW 315 7,5 C 5,9 C
04.01.2013 23:11 8,6 C 93 % 1024,3 hPa 0,5 l/m 12,6 km/h (3 Bft) N-NW 337 7,5 C 6,5 C
04.01.2013 23:16 8,6 C 93 % 1024,3 hPa 0,0 l/m 9,7 km/h (2 Bft) NW 315 7,5 C 7,0 C
04.01.2013 23:21 8,6 C 93 % 1024,4 hPa 0,0 l/m 6,5 km/h (2 Bft) N 360 7,5 C 7,7 C
04.01.2013 23:26 8,5 C 93 % 1024,5 hPa 0,0 l/m 4,7 km/h (1 Bft) W-NW 292 7,4 C 8,2 C
04.01.2013 23:31 8,5 C 93 % 1024,6 hPa 0,0 l/m 19,4 km/h (3 Bft) NW 315 7,4 C 5,5 C
04.01.2013 23:36 8,5 C 93 % 1024,6 hPa 0,0 l/m 8,3 km/h (2 Bft) N 360 7,4 C 7,2 C
04.01.2013 23:41 8,4 C 93 % 1024,4 hPa 0,5 l/m 12,6 km/h (3 Bft) NW 315 7,3 C 6,3 C
04.01.2013 23:46 8,4 C 93 % 1024,5 hPa 0,0 l/m 6,8 km/h (2 Bft) N-NW 337 7,3 C 7,4 C
04.01.2013 23:51 8,4 C 93 % 1024,5 hPa 0,0 l/m 4,3 km/h (1 Bft) N-NW 337 7,3 C 8,4 C
04.01.2013 23:56 8,4 C 93 % 1024,4 hPa 0,0 l/m 7,2 km/h (2 Bft) N-NW 337 7,3 C 7,3 C
_ Min-Zeit 06:16 00:01 18:31 - 10:06 - - 06:11 06:36
Minimum _ 5,6 C 85 % 1023,6 hPa - 0,0 km/h (0 Bft) - - 4,0 C 1,5 C
_ Max-Zeit 15:16 13:41 08:11 12:01 14:26 - - 14:41 19:31
Maximum _ 9,8 C 94 % 1029,1 hPa 0,5 l/m 33,1 km/h
NW (5 Bft)
- - 8,5 C 8,9 C
Durchschnitt _ 8,0 C 90 % 1026,5 hPa #11,4 l/m 12,6 km/h (3 Bft) W-NW - 6,5 C 6,0 C
(c) by David Heller